sensor_id;sensor_type;location;lat;lon;timestamp;temperature;humidity
12386;DHT22;6257;57.634;18.310;2022-11-21T00:00:36;-0.40;99.90
12386;DHT22;6257;57.634;18.310;2022-11-21T00:03:03;0.10;99.90
12386;DHT22;6257;57.634;18.310;2022-11-21T00:05:31;-0.60;99.90
12386;DHT22;6257;57.634;18.310;2022-11-21T00:07:59;-0.10;99.90
12386;DHT22;6257;57.634;18.310;2022-11-21T00:10:26;-0.50;99.90
12386;DHT22;6257;57.634;18.310;2022-11-21T00:12:54;-0.40;99.90
12386;DHT22;6257;57.634;18.310;2022-11-21T00:15:22;-0.40;99.90
12386;DHT22;6257;57.634;18.310;2022-11-21T00:17:49;-0.30;99.90
12386;DHT22;6257;57.634;18.310;2022-11-21T00:20:17;-0.30;99.90
12386;DHT22;6257;57.634;18.310;2022-11-21T00:22:44;-1.00;99.90
12386;DHT22;6257;57.634;18.310;2022-11-21T00:25:13;-0.80;99.90
12386;DHT22;6257;57.634;18.310;2022-11-21T00:27:40;-1.10;99.90
12386;DHT22;6257;57.634;18.310;2022-11-21T00:30:09;-1.10;99.90
12386;DHT22;6257;57.634;18.310;2022-11-21T00:32:37;-1.20;99.90
12386;DHT22;6257;57.634;18.310;2022-11-21T00:35:05;-1.20;99.90
12386;DHT22;6257;57.634;18.310;2022-11-21T00:37:32;-1.20;99.90
12386;DHT22;6257;57.634;18.310;2022-11-21T00:40:00;0.30;99.90
12386;DHT22;6257;57.634;18.310;2022-11-21T00:42:28;-0.70;99.90
12386;DHT22;6257;57.634;18.310;2022-11-21T00:44:55;-0.50;99.90
12386;DHT22;6257;57.634;18.310;2022-11-21T00:47:22;-1.00;99.90
12386;DHT22;6257;57.634;18.310;2022-11-21T00:49:49;-1.10;99.90
12386;DHT22;6257;57.634;18.310;2022-11-21T00:52:16;-0.90;99.90
12386;DHT22;6257;57.634;18.310;2022-11-21T00:54:43;-1.10;99.90
12386;DHT22;6257;57.634;18.310;2022-11-21T00:57:10;-1.10;99.90
12386;DHT22;6257;57.634;18.310;2022-11-21T00:59:39;-1.00;99.90
12386;DHT22;6257;57.634;18.310;2022-11-21T01:02:06;-0.90;99.90
12386;DHT22;6257;57.634;18.310;2022-11-21T01:04:34;-0.50;99.90
12386;DHT22;6257;57.634;18.310;2022-11-21T01:07:01;-1.00;99.90
12386;DHT22;6257;57.634;18.310;2022-11-21T01:09:28;-0.70;99.90
12386;DHT22;6257;57.634;18.310;2022-11-21T01:11:55;-0.90;99.90
12386;DHT22;6257;57.634;18.310;2022-11-21T01:14:23;-0.40;99.90
12386;DHT22;6257;57.634;18.310;2022-11-21T01:16:51;-0.80;99.90
12386;DHT22;6257;57.634;18.310;2022-11-21T01:19:18;-0.10;99.90
12386;DHT22;6257;57.634;18.310;2022-11-21T01:21:45;-0.30;99.90
12386;DHT22;6257;57.634;18.310;2022-11-21T01:24:12;-0.50;99.90
12386;DHT22;6257;57.634;18.310;2022-11-21T01:26:39;-0.70;99.90
12386;DHT22;6257;57.634;18.310;2022-11-21T01:29:06;-0.30;99.90
12386;DHT22;6257;57.634;18.310;2022-11-21T01:31:33;-0.70;99.90
12386;DHT22;6257;57.634;18.310;2022-11-21T01:34:03;-0.60;99.90
12386;DHT22;6257;57.634;18.310;2022-11-21T01:36:31;-0.40;99.90
12386;DHT22;6257;57.634;18.310;2022-11-21T01:39:00;-0.30;99.90
12386;DHT22;6257;57.634;18.310;2022-11-21T01:41:29;0.00;99.90
12386;DHT22;6257;57.634;18.310;2022-11-21T01:43:58;-0.30;99.90
12386;DHT22;6257;57.634;18.310;2022-11-21T01:46:25;-0.10;99.90
12386;DHT22;6257;57.634;18.310;2022-11-21T01:48:55;-0.40;99.90
12386;DHT22;6257;57.634;18.310;2022-11-21T01:51:28;-0.30;99.90
12386;DHT22;6257;57.634;18.310;2022-11-21T01:53:58;-0.20;99.90
12386;DHT22;6257;57.634;18.310;2022-11-21T01:56:28;-0.20;99.90
12386;DHT22;6257;57.634;18.310;2022-11-21T01:58:59;0.40;99.90
12386;DHT22;6257;57.634;18.310;2022-11-21T02:01:28;0.50;99.90
12386;DHT22;6257;57.634;18.310;2022-11-21T02:03:55;-0.30;99.90
12386;DHT22;6257;57.634;18.310;2022-11-21T02:06:25;-0.50;99.90
12386;DHT22;6257;57.634;18.310;2022-11-21T02:08:53;-0.50;99.90
12386;DHT22;6257;57.634;18.310;2022-11-21T02:11:26;-0.30;99.90
12386;DHT22;6257;57.634;18.310;2022-11-21T02:13:55;-0.10;99.90
12386;DHT22;6257;57.634;18.310;2022-11-21T02:16:23;-0.20;99.90
12386;DHT22;6257;57.634;18.310;2022-11-21T02:18:51;-0.60;99.90
12386;DHT22;6257;57.634;18.310;2022-11-21T02:21:26;-0.50;99.90
12386;DHT22;6257;57.634;18.310;2022-11-21T02:24:00;-0.20;99.90
12386;DHT22;6257;57.634;18.310;2022-11-21T02:26:31;-0.50;99.90
12386;DHT22;6257;57.634;18.310;2022-11-21T02:28:58;0.20;99.90
12386;DHT22;6257;57.634;18.310;2022-11-21T02:31:26;0.00;99.90
12386;DHT22;6257;57.634;18.310;2022-11-21T02:33:53;0.10;99.90
12386;DHT22;6257;57.634;18.310;2022-11-21T02:36:41;-0.40;99.90
12386;DHT22;6257;57.634;18.310;2022-11-21T02:39:13;-0.60;99.90
12386;DHT22;6257;57.634;18.310;2022-11-21T02:41:45;-0.40;99.90
12386;DHT22;6257;57.634;18.310;2022-11-21T02:44:19;-0.50;99.90
12386;DHT22;6257;57.634;18.310;2022-11-21T02:46:49;-0.50;99.90
12386;DHT22;6257;57.634;18.310;2022-11-21T02:49:21;-0.20;99.90
12386;DHT22;6257;57.634;18.310;2022-11-21T02:51:49;-0.80;99.90
12386;DHT22;6257;57.634;18.310;2022-11-21T02:54:16;-0.80;99.90
12386;DHT22;6257;57.634;18.310;2022-11-21T02:56:44;-0.80;99.90
12386;DHT22;6257;57.634;18.310;2022-11-21T02:59:11;-0.90;99.90
12386;DHT22;6257;57.634;18.310;2022-11-21T03:01:38;-0.90;99.90
12386;DHT22;6257;57.634;18.310;2022-11-21T03:04:05;-0.80;99.90
12386;DHT22;6257;57.634;18.310;2022-11-21T03:06:32;-0.50;99.90
12386;DHT22;6257;57.634;18.310;2022-11-21T03:08:59;-0.40;99.90
12386;DHT22;6257;57.634;18.310;2022-11-21T03:11:26;-0.40;99.90
12386;DHT22;6257;57.634;18.310;2022-11-21T03:13:55;-0.90;99.90
12386;DHT22;6257;57.634;18.310;2022-11-21T03:16:22;-0.90;99.90
12386;DHT22;6257;57.634;18.310;2022-11-21T03:18:48;-0.90;99.90
12386;DHT22;6257;57.634;18.310;2022-11-21T03:21:16;-1.00;99.90
12386;DHT22;6257;57.634;18.310;2022-11-21T03:23:43;-1.00;99.90
12386;DHT22;6257;57.634;18.310;2022-11-21T03:26:10;-0.60;99.90
12386;DHT22;6257;57.634;18.310;2022-11-21T03:28:37;-1.00;99.90
12386;DHT22;6257;57.634;18.310;2022-11-21T03:31:05;-0.90;99.90
12386;DHT22;6257;57.634;18.310;2022-11-21T03:33:32;-1.00;99.90
12386;DHT22;6257;57.634;18.310;2022-11-21T03:35:59;-0.90;99.90
12386;DHT22;6257;57.634;18.310;2022-11-21T03:38:26;-0.80;99.90
12386;DHT22;6257;57.634;18.310;2022-11-21T03:40:53;-0.50;99.90
12386;DHT22;6257;57.634;18.310;2022-11-21T03:43:20;-1.00;99.90
12386;DHT22;6257;57.634;18.310;2022-11-21T03:45:47;-0.90;99.90
12386;DHT22;6257;57.634;18.310;2022-11-21T03:48:16;-0.30;99.90
12386;DHT22;6257;57.634;18.310;2022-11-21T03:50:43;-0.90;99.90
12386;DHT22;6257;57.634;18.310;2022-11-21T03:53:10;-0.40;99.90
12386;DHT22;6257;57.634;18.310;2022-11-21T03:55:37;-0.60;99.90
12386;DHT22;6257;57.634;18.310;2022-11-21T03:58:04;-0.90;99.90
12386;DHT22;6257;57.634;18.310;2022-11-21T04:00:31;-0.40;99.90
12386;DHT22;6257;57.634;18.310;2022-11-21T04:02:58;-0.70;99.90
12386;DHT22;6257;57.634;18.310;2022-11-21T04:05:27;-0.30;99.90
12386;DHT22;6257;57.634;18.310;2022-11-21T04:07:54;0.30;99.90
12386;DHT22;6257;57.634;18.310;2022-11-21T04:10:21;0.20;99.90
12386;DHT22;6257;57.634;18.310;2022-11-21T04:12:48;0.40;99.90
12386;DHT22;6257;57.634;18.310;2022-11-21T04:15:15;0.00;99.90
12386;DHT22;6257;57.634;18.310;2022-11-21T04:17:42;-0.40;99.90
12386;DHT22;6257;57.634;18.310;2022-11-21T04:20:10;-0.40;99.90
12386;DHT22;6257;57.634;18.310;2022-11-21T04:22:39;-0.50;99.90
12386;DHT22;6257;57.634;18.310;2022-11-21T04:25:06;-0.30;99.90
12386;DHT22;6257;57.634;18.310;2022-11-21T04:27:34;-0.40;99.90
12386;DHT22;6257;57.634;18.310;2022-11-21T04:30:01;-0.50;99.90
12386;DHT22;6257;57.634;18.310;2022-11-21T04:32:28;-0.50;99.90
12386;DHT22;6257;57.634;18.310;2022-11-21T04:34:56;0.10;99.90
12386;DHT22;6257;57.634;18.310;2022-11-21T04:37:23;-0.50;99.90
12386;DHT22;6257;57.634;18.310;2022-11-21T04:39:51;-0.50;99.90
12386;DHT22;6257;57.634;18.310;2022-11-21T04:42:18;-0.30;99.90
12386;DHT22;6257;57.634;18.310;2022-11-21T04:44:45;-0.70;99.90
12386;DHT22;6257;57.634;18.310;2022-11-21T04:47:12;-0.70;99.90
12386;DHT22;6257;57.634;18.310;2022-11-21T04:49:39;-0.30;99.90
12386;DHT22;6257;57.634;18.310;2022-11-21T04:52:06;-0.10;99.90
12386;DHT22;6257;57.634;18.310;2022-11-21T04:54:33;-0.10;99.90
12386;DHT22;6257;57.634;18.310;2022-11-21T04:57:02;-0.10;99.90
12386;DHT22;6257;57.634;18.310;2022-11-21T04:59:29;-0.40;99.90
12386;DHT22;6257;57.634;18.310;2022-11-21T05:01:56;-0.30;99.90
12386;DHT22;6257;57.634;18.310;2022-11-21T05:04:23;-0.30;99.90
12386;DHT22;6257;57.634;18.310;2022-11-21T05:06:50;-0.30;99.90
12386;DHT22;6257;57.634;18.310;2022-11-21T05:09:17;-0.10;99.90
12386;DHT22;6257;57.634;18.310;2022-11-21T05:11:44;0.00;99.90
12386;DHT22;6257;57.634;18.310;2022-11-21T05:14:30;-0.10;99.90
12386;DHT22;6257;57.634;18.310;2022-11-21T05:16:57;-0.20;99.90
12386;DHT22;6257;57.634;18.310;2022-11-21T05:19:24;0.00;99.90
12386;DHT22;6257;57.634;18.310;2022-11-21T05:21:51;-0.10;99.90
12386;DHT22;6257;57.634;18.310;2022-11-21T05:24:18;0.20;99.90
12386;DHT22;6257;57.634;18.310;2022-11-21T05:26:45;0.00;99.90
12386;DHT22;6257;57.634;18.310;2022-11-21T05:29:12;0.00;99.90
12386;DHT22;6257;57.634;18.310;2022-11-21T05:31:40;0.10;99.90
12386;DHT22;6257;57.634;18.310;2022-11-21T05:34:08;0.10;99.90
12386;DHT22;6257;57.634;18.310;2022-11-21T05:36:35;0.20;99.90
12386;DHT22;6257;57.634;18.310;2022-11-21T05:39:02;0.10;99.90
12386;DHT22;6257;57.634;18.310;2022-11-21T05:41:29;0.20;99.90
12386;DHT22;6257;57.634;18.310;2022-11-21T05:43:56;0.30;99.90
12386;DHT22;6257;57.634;18.310;2022-11-21T05:46:24;0.20;99.90
12386;DHT22;6257;57.634;18.310;2022-11-21T05:48:53;0.20;99.90
12386;DHT22;6257;57.634;18.310;2022-11-21T05:51:21;0.20;99.90
12386;DHT22;6257;57.634;18.310;2022-11-21T05:53:48;0.40;99.90
12386;DHT22;6257;57.634;18.310;2022-11-21T05:56:16;0.20;99.90
12386;DHT22;6257;57.634;18.310;2022-11-21T05:58:44;0.20;99.90
12386;DHT22;6257;57.634;18.310;2022-11-21T06:01:12;0.20;99.90
12386;DHT22;6257;57.634;18.310;2022-11-21T06:03:41;0.30;99.90
12386;DHT22;6257;57.634;18.310;2022-11-21T06:06:10;0.30;99.90
12386;DHT22;6257;57.634;18.310;2022-11-21T06:08:39;0.30;99.90
12386;DHT22;6257;57.634;18.310;2022-11-21T06:11:08;0.20;99.90
12386;DHT22;6257;57.634;18.310;2022-11-21T06:13:36;0.30;99.90
12386;DHT22;6257;57.634;18.310;2022-11-21T06:16:06;0.30;99.90
12386;DHT22;6257;57.634;18.310;2022-11-21T06:18:35;0.20;99.90
12386;DHT22;6257;57.634;18.310;2022-11-21T06:21:03;0.20;99.90
12386;DHT22;6257;57.634;18.310;2022-11-21T06:23:34;0.20;99.90
12386;DHT22;6257;57.634;18.310;2022-11-21T06:26:04;0.20;99.90
12386;DHT22;6257;57.634;18.310;2022-11-21T06:28:33;0.50;99.90
12386;DHT22;6257;57.634;18.310;2022-11-21T06:31:04;0.20;99.90
12386;DHT22;6257;57.634;18.310;2022-11-21T06:33:31;0.30;99.90
12386;DHT22;6257;57.634;18.310;2022-11-21T06:36:01;0.20;99.90
12386;DHT22;6257;57.634;18.310;2022-11-21T06:38:28;0.30;99.90
12386;DHT22;6257;57.634;18.310;2022-11-21T06:40:57;0.20;99.90
12386;DHT22;6257;57.634;18.310;2022-11-21T06:43:26;0.10;99.90
12386;DHT22;6257;57.634;18.310;2022-11-21T06:53:23;0.10;99.90
12386;DHT22;6257;57.634;18.310;2022-11-21T06:56:05;1.30;99.90
12386;DHT22;6257;57.634;18.310;2022-11-21T07:01:52;0.20;99.90
12386;DHT22;6257;57.634;18.310;2022-11-21T07:04:21;0.30;99.90
12386;DHT22;6257;57.634;18.310;2022-11-21T07:06:48;0.30;99.90
12386;DHT22;6257;57.634;18.310;2022-11-21T07:09:16;0.50;99.90
12386;DHT22;6257;57.634;18.310;2022-11-21T07:11:45;1.10;99.90
12386;DHT22;6257;57.634;18.310;2022-11-21T07:16:38;0.40;99.90
12386;DHT22;6257;57.634;18.310;2022-11-21T07:19:05;0.60;99.90
12386;DHT22;6257;57.634;18.310;2022-11-21T07:21:32;0.40;99.90
12386;DHT22;6257;57.634;18.310;2022-11-21T07:23:59;1.10;99.90
12386;DHT22;6257;57.634;18.310;2022-11-21T07:26:26;1.30;99.90
12386;DHT22;6257;57.634;18.310;2022-11-21T07:28:55;0.40;99.90
12386;DHT22;6257;57.634;18.310;2022-11-21T07:31:22;0.40;99.90
12386;DHT22;6257;57.634;18.310;2022-11-21T07:33:49;0.40;99.90
12386;DHT22;6257;57.634;18.310;2022-11-21T07:36:16;0.50;99.90
12386;DHT22;6257;57.634;18.310;2022-11-21T07:38:45;0.50;99.90
12386;DHT22;6257;57.634;18.310;2022-11-21T07:41:12;0.60;99.90
12386;DHT22;6257;57.634;18.310;2022-11-21T07:43:39;0.60;99.90
12386;DHT22;6257;57.634;18.310;2022-11-21T07:46:08;0.60;99.90
12386;DHT22;6257;57.634;18.310;2022-11-21T07:48:36;0.50;99.90
12386;DHT22;6257;57.634;18.310;2022-11-21T07:51:04;0.50;99.90
12386;DHT22;6257;57.634;18.310;2022-11-21T07:53:31;0.60;99.90
12386;DHT22;6257;57.634;18.310;2022-11-21T07:55:59;0.60;99.90
12386;DHT22;6257;57.634;18.310;2022-11-21T07:58:26;0.60;99.90
12386;DHT22;6257;57.634;18.310;2022-11-21T08:00:53;0.60;99.90
12386;DHT22;6257;57.634;18.310;2022-11-21T08:03:21;1.40;99.90
12386;DHT22;6257;57.634;18.310;2022-11-21T08:05:49;0.60;99.90
12386;DHT22;6257;57.634;18.310;2022-11-21T08:08:16;0.60;99.90
12386;DHT22;6257;57.634;18.310;2022-11-21T08:10:44;0.50;99.90
12386;DHT22;6257;57.634;18.310;2022-11-21T08:13:12;0.60;99.90
12386;DHT22;6257;57.634;18.310;2022-11-21T08:15:39;0.60;99.90
12386;DHT22;6257;57.634;18.310;2022-11-21T08:18:08;0.60;99.90
12386;DHT22;6257;57.634;18.310;2022-11-21T08:20:37;0.60;99.90
12386;DHT22;6257;57.634;18.310;2022-11-21T08:23:04;1.40;99.90
12386;DHT22;6257;57.634;18.310;2022-11-21T08:25:32;0.70;99.90
12386;DHT22;6257;57.634;18.310;2022-11-21T08:27:59;0.60;99.90
12386;DHT22;6257;57.634;18.310;2022-11-21T08:30:27;1.40;99.90
12386;DHT22;6257;57.634;18.310;2022-11-21T08:32:55;0.80;99.90
12386;DHT22;6257;57.634;18.310;2022-11-21T08:35:22;0.70;99.90
12386;DHT22;6257;57.634;18.310;2022-11-21T08:37:55;0.70;99.90
12386;DHT22;6257;57.634;18.310;2022-11-21T08:40:23;1.40;99.90
12386;DHT22;6257;57.634;18.310;2022-11-21T08:42:55;1.30;99.90
12386;DHT22;6257;57.634;18.310;2022-11-21T08:45:22;1.40;99.90
12386;DHT22;6257;57.634;18.310;2022-11-21T08:47:49;1.00;99.90
12386;DHT22;6257;57.634;18.310;2022-11-21T08:50:16;1.40;99.90
12386;DHT22;6257;57.634;18.310;2022-11-21T08:52:43;1.30;99.90
12386;DHT22;6257;57.634;18.310;2022-11-21T08:55:12;1.40;99.90
12386;DHT22;6257;57.634;18.310;2022-11-21T08:57:39;1.20;99.90
12386;DHT22;6257;57.634;18.310;2022-11-21T09:00:08;1.50;99.90
12386;DHT22;6257;57.634;18.310;2022-11-21T09:02:37;1.10;99.90
12386;DHT22;6257;57.634;18.310;2022-11-21T09:05:05;1.00;99.90
12386;DHT22;6257;57.634;18.310;2022-11-21T09:07:32;1.00;99.90
12386;DHT22;6257;57.634;18.310;2022-11-21T09:09:59;0.90;99.90
12386;DHT22;6257;57.634;18.310;2022-11-21T09:12:27;0.90;99.90
12386;DHT22;6257;57.634;18.310;2022-11-21T09:14:54;0.80;99.90
12386;DHT22;6257;57.634;18.310;2022-11-21T09:17:38;1.20;99.90
12386;DHT22;6257;57.634;18.310;2022-11-21T09:20:23;1.50;99.90
12386;DHT22;6257;57.634;18.310;2022-11-21T09:22:49;0.70;99.90
12386;DHT22;6257;57.634;18.310;2022-11-21T09:25:17;1.30;99.90
12386;DHT22;6257;57.634;18.310;2022-11-21T09:27:46;1.40;99.90
12386;DHT22;6257;57.634;18.310;2022-11-21T09:30:13;0.70;99.90
12386;DHT22;6257;57.634;18.310;2022-11-21T09:32:40;1.40;99.90
12386;DHT22;6257;57.634;18.310;2022-11-21T09:35:08;1.40;99.90
12386;DHT22;6257;57.634;18.310;2022-11-21T09:37:35;0.60;99.90
12386;DHT22;6257;57.634;18.310;2022-11-21T09:40:03;1.40;99.90
12386;DHT22;6257;57.634;18.310;2022-11-21T09:42:45;0.50;99.90
12386;DHT22;6257;57.634;18.310;2022-11-21T09:45:21;1.10;99.90
12386;DHT22;6257;57.634;18.310;2022-11-21T09:47:50;1.40;99.90
12386;DHT22;6257;57.634;18.310;2022-11-21T09:50:24;0.60;99.90
12386;DHT22;6257;57.634;18.310;2022-11-21T09:52:56;1.40;99.90
12386;DHT22;6257;57.634;18.310;2022-11-21T09:55:28;0.60;99.90
12386;DHT22;6257;57.634;18.310;2022-11-21T09:58:01;0.60;99.90
12386;DHT22;6257;57.634;18.310;2022-11-21T10:00:30;0.50;99.90
12386;DHT22;6257;57.634;18.310;2022-11-21T10:02:58;0.40;99.90
12386;DHT22;6257;57.634;18.310;2022-11-21T10:05:34;0.40;99.90
12386;DHT22;6257;57.634;18.310;2022-11-21T10:08:06;0.40;99.90
12386;DHT22;6257;57.634;18.310;2022-11-21T10:10:49;0.40;99.90
12386;DHT22;6257;57.634;18.310;2022-11-21T10:13:39;0.50;99.90
12386;DHT22;6257;57.634;18.310;2022-11-21T10:16:17;0.40;99.90
12386;DHT22;6257;57.634;18.310;2022-11-21T10:19:29;1.20;99.90
12386;DHT22;6257;57.634;18.310;2022-11-21T10:22:39;0.50;99.90
12386;DHT22;6257;57.634;18.310;2022-11-21T10:25:12;0.40;99.90
12386;DHT22;6257;57.634;18.310;2022-11-21T10:27:45;0.40;99.90
12386;DHT22;6257;57.634;18.310;2022-11-21T10:30:15;0.40;99.90
12386;DHT22;6257;57.634;18.310;2022-11-21T10:32:47;0.40;99.90
12386;DHT22;6257;57.634;18.310;2022-11-21T10:35:16;0.40;99.90
12386;DHT22;6257;57.634;18.310;2022-11-21T10:37:48;0.40;99.90
12386;DHT22;6257;57.634;18.310;2022-11-21T10:40:33;0.70;99.90
12386;DHT22;6257;57.634;18.310;2022-11-21T10:43:07;0.40;99.90
12386;DHT22;6257;57.634;18.310;2022-11-21T10:45:48;0.60;99.90
12386;DHT22;6257;57.634;18.310;2022-11-21T10:48:17;0.40;99.90
12386;DHT22;6257;57.634;18.310;2022-11-21T10:50:54;0.50;99.90
12386;DHT22;6257;57.634;18.310;2022-11-21T10:53:24;1.40;99.90
12386;DHT22;6257;57.634;18.310;2022-11-21T10:56:12;0.40;99.90
12386;DHT22;6257;57.634;18.310;2022-11-21T10:58:42;1.30;99.90
12386;DHT22;6257;57.634;18.310;2022-11-21T11:01:24;1.40;99.90
12386;DHT22;6257;57.634;18.310;2022-11-21T11:04:16;0.40;99.90
12386;DHT22;6257;57.634;18.310;2022-11-21T11:06:45;0.50;99.90
12386;DHT22;6257;57.634;18.310;2022-11-21T11:09:23;1.50;99.90
12386;DHT22;6257;57.634;18.310;2022-11-21T11:11:50;1.20;99.90
12386;DHT22;6257;57.634;18.310;2022-11-21T11:14:28;0.40;99.90
12386;DHT22;6257;57.634;18.310;2022-11-21T11:16:55;1.30;99.90
12386;DHT22;6257;57.634;18.310;2022-11-21T11:19:26;0.40;99.90
12386;DHT22;6257;57.634;18.310;2022-11-21T11:21:54;0.50;99.90
12386;DHT22;6257;57.634;18.310;2022-11-21T11:24:24;0.50;99.90
12386;DHT22;6257;57.634;18.310;2022-11-21T11:26:57;1.50;99.90
12386;DHT22;6257;57.634;18.310;2022-11-21T11:29:25;0.70;99.90
12386;DHT22;6257;57.634;18.310;2022-11-21T11:31:56;1.20;99.90
12386;DHT22;6257;57.634;18.310;2022-11-21T11:34:27;1.30;99.90
12386;DHT22;6257;57.634;18.310;2022-11-21T11:37:09;0.50;99.90
12386;DHT22;6257;57.634;18.310;2022-11-21T11:39:45;0.60;99.90
12386;DHT22;6257;57.634;18.310;2022-11-21T11:42:52;0.50;99.90
12386;DHT22;6257;57.634;18.310;2022-11-21T11:45:49;0.60;99.90
12386;DHT22;6257;57.634;18.310;2022-11-21T11:48:36;0.60;99.90
12386;DHT22;6257;57.634;18.310;2022-11-21T11:51:15;0.50;99.90
12386;DHT22;6257;57.634;18.310;2022-11-21T11:53:48;0.50;99.90
12386;DHT22;6257;57.634;18.310;2022-11-21T11:56:19;0.50;99.90
12386;DHT22;6257;57.634;18.310;2022-11-21T11:58:51;0.40;99.90
12386;DHT22;6257;57.634;18.310;2022-11-21T12:01:22;0.50;99.90
12386;DHT22;6257;57.634;18.310;2022-11-21T12:03:57;0.50;99.90
12386;DHT22;6257;57.634;18.310;2022-11-21T12:06:28;0.50;99.90
12386;DHT22;6257;57.634;18.310;2022-11-21T12:09:00;0.50;99.90
12386;DHT22;6257;57.634;18.310;2022-11-21T12:11:33;0.40;99.90
12386;DHT22;6257;57.634;18.310;2022-11-21T12:14:35;0.40;99.90
12386;DHT22;6257;57.634;18.310;2022-11-21T12:17:29;0.40;99.90
12386;DHT22;6257;57.634;18.310;2022-11-21T12:19:57;0.40;99.90
12386;DHT22;6257;57.634;18.310;2022-11-21T12:22:26;0.40;99.90
12386;DHT22;6257;57.634;18.310;2022-11-21T12:24:54;0.40;99.90
12386;DHT22;6257;57.634;18.310;2022-11-21T12:27:28;0.30;99.90
12386;DHT22;6257;57.634;18.310;2022-11-21T12:33:04;0.40;99.90
12386;DHT22;6257;57.634;18.310;2022-11-21T12:35:50;0.40;99.90
12386;DHT22;6257;57.634;18.310;2022-11-21T12:38:41;0.40;99.90
12386;DHT22;6257;57.634;18.310;2022-11-21T12:41:15;1.40;99.90
12386;DHT22;6257;57.634;18.310;2022-11-21T12:44:11;1.30;99.90
12386;DHT22;6257;57.634;18.310;2022-11-21T12:46:49;1.30;99.90
12386;DHT22;6257;57.634;18.310;2022-11-21T12:49:26;0.50;99.90
12386;DHT22;6257;57.634;18.310;2022-11-21T12:52:14;1.20;99.90
12386;DHT22;6257;57.634;18.310;2022-11-21T12:55:11;1.00;99.90
12386;DHT22;6257;57.634;18.310;2022-11-21T12:58:07;1.10;99.90
12386;DHT22;6257;57.634;18.310;2022-11-21T13:00:45;0.50;99.90
12386;DHT22;6257;57.634;18.310;2022-11-21T13:03:38;0.60;99.90
12386;DHT22;6257;57.634;18.310;2022-11-21T13:06:10;0.60;99.90
12386;DHT22;6257;57.634;18.310;2022-11-21T13:08:39;1.30;99.90
12386;DHT22;6257;57.634;18.310;2022-11-21T13:11:11;1.30;99.90
12386;DHT22;6257;57.634;18.310;2022-11-21T13:14:03;0.60;99.90
12386;DHT22;6257;57.634;18.310;2022-11-21T13:16:33;0.60;99.90
12386;DHT22;6257;57.634;18.310;2022-11-21T13:19:15;0.60;99.90
12386;DHT22;6257;57.634;18.310;2022-11-21T13:21:44;0.60;99.90
12386;DHT22;6257;57.634;18.310;2022-11-21T13:27:27;0.70;99.90
12386;DHT22;6257;57.634;18.310;2022-11-21T13:30:21;0.70;99.90
12386;DHT22;6257;57.634;18.310;2022-11-21T13:32:50;0.70;99.90
12386;DHT22;6257;57.634;18.310;2022-11-21T13:35:56;0.70;99.90
12386;DHT22;6257;57.634;18.310;2022-11-21T13:38:23;0.70;99.90
12386;DHT22;6257;57.634;18.310;2022-11-21T13:40:50;1.40;99.90
12386;DHT22;6257;57.634;18.310;2022-11-21T13:43:36;1.40;99.90
12386;DHT22;6257;57.634;18.310;2022-11-21T13:46:03;1.40;99.90
12386;DHT22;6257;57.634;18.310;2022-11-21T13:48:49;0.70;99.90
12386;DHT22;6257;57.634;18.310;2022-11-21T13:51:40;0.60;99.90
12386;DHT22;6257;57.634;18.310;2022-11-21T13:57:16;0.50;99.90
12386;DHT22;6257;57.634;18.310;2022-11-21T14:00:16;0.50;99.90
12386;DHT22;6257;57.634;18.310;2022-11-21T14:02:57;0.50;99.90
12386;DHT22;6257;57.634;18.310;2022-11-21T14:05:47;0.50;99.90
12386;DHT22;6257;57.634;18.310;2022-11-21T14:08:25;1.40;99.90
12386;DHT22;6257;57.634;18.310;2022-11-21T14:10:54;1.40;99.90
12386;DHT22;6257;57.634;18.310;2022-11-21T14:13:26;0.50;99.90
12386;DHT22;6257;57.634;18.310;2022-11-21T14:16:16;0.40;99.90
12386;DHT22;6257;57.634;18.310;2022-11-21T14:18:47;0.60;99.90
12386;DHT22;6257;57.634;18.310;2022-11-21T14:21:19;0.40;99.90
12386;DHT22;6257;57.634;18.310;2022-11-21T14:23:47;0.60;99.90
12386;DHT22;6257;57.634;18.310;2022-11-21T14:26:16;1.40;99.90
12386;DHT22;6257;57.634;18.310;2022-11-21T14:28:46;0.60;99.90
12386;DHT22;6257;57.634;18.310;2022-11-21T14:31:15;1.30;99.90
12386;DHT22;6257;57.634;18.310;2022-11-21T14:33:42;0.70;99.90
12386;DHT22;6257;57.634;18.310;2022-11-21T14:36:13;1.40;99.90
12386;DHT22;6257;57.634;18.310;2022-11-21T14:38:43;1.40;99.90
12386;DHT22;6257;57.634;18.310;2022-11-21T14:41:31;0.60;99.90
12386;DHT22;6257;57.634;18.310;2022-11-21T14:44:20;0.50;99.90
12386;DHT22;6257;57.634;18.310;2022-11-21T14:46:50;0.60;99.90
12386;DHT22;6257;57.634;18.310;2022-11-21T14:49:25;0.50;99.90
12386;DHT22;6257;57.634;18.310;2022-11-21T14:52:14;1.40;99.90
12386;DHT22;6257;57.634;18.310;2022-11-21T14:54:48;0.50;99.90
12386;DHT22;6257;57.634;18.310;2022-11-21T14:57:19;0.50;99.90
12386;DHT22;6257;57.634;18.310;2022-11-21T14:59:48;0.50;99.90
12386;DHT22;6257;57.634;18.310;2022-11-21T15:02:18;0.50;99.90
12386;DHT22;6257;57.634;18.310;2022-11-21T15:04:47;0.40;99.90
12386;DHT22;6257;57.634;18.310;2022-11-21T15:07:19;0.40;99.90
12386;DHT22;6257;57.634;18.310;2022-11-21T15:09:47;0.50;99.90
12386;DHT22;6257;57.634;18.310;2022-11-21T15:12:20;0.50;99.90
12386;DHT22;6257;57.634;18.310;2022-11-21T15:14:49;0.40;99.90
12386;DHT22;6257;57.634;18.310;2022-11-21T15:17:21;0.50;99.90
12386;DHT22;6257;57.634;18.310;2022-11-21T15:20:03;1.30;99.90
12386;DHT22;6257;57.634;18.310;2022-11-21T15:22:34;0.60;99.90
12386;DHT22;6257;57.634;18.310;2022-11-21T15:25:07;0.40;99.90
12386;DHT22;6257;57.634;18.310;2022-11-21T15:27:37;0.30;99.90
12386;DHT22;6257;57.634;18.310;2022-11-21T15:30:23;0.30;99.90
12386;DHT22;6257;57.634;18.310;2022-11-21T15:33:04;0.30;99.90
12386;DHT22;6257;57.634;18.310;2022-11-21T15:35:50;0.30;99.90
12386;DHT22;6257;57.634;18.310;2022-11-21T15:38:21;0.20;99.90
12386;DHT22;6257;57.634;18.310;2022-11-21T15:41:21;0.20;99.90
12386;DHT22;6257;57.634;18.310;2022-11-21T15:43:51;0.20;99.90
12386;DHT22;6257;57.634;18.310;2022-11-21T15:46:19;0.20;99.90
12386;DHT22;6257;57.634;18.310;2022-11-21T15:48:49;0.20;99.90
12386;DHT22;6257;57.634;18.310;2022-11-21T15:51:18;0.20;99.90
12386;DHT22;6257;57.634;18.310;2022-11-21T15:53:45;0.20;99.90
12386;DHT22;6257;57.634;18.310;2022-11-21T15:56:14;0.20;99.90
12386;DHT22;6257;57.634;18.310;2022-11-21T15:58:42;0.10;99.90
12386;DHT22;6257;57.634;18.310;2022-11-21T16:01:12;0.20;99.90
12386;DHT22;6257;57.634;18.310;2022-11-21T16:03:41;0.10;99.90
12386;DHT22;6257;57.634;18.310;2022-11-21T16:06:09;0.20;99.90
12386;DHT22;6257;57.634;18.310;2022-11-21T16:08:37;0.10;99.90
12386;DHT22;6257;57.634;18.310;2022-11-21T16:11:04;0.20;99.90
12386;DHT22;6257;57.634;18.310;2022-11-21T16:13:32;0.40;99.90
12386;DHT22;6257;57.634;18.310;2022-11-21T16:16:00;1.10;99.90
12386;DHT22;6257;57.634;18.310;2022-11-21T16:18:28;0.30;99.90
12386;DHT22;6257;57.634;18.310;2022-11-21T16:21:06;1.30;99.90
12386;DHT22;6257;57.634;18.310;2022-11-21T16:23:34;1.50;99.90
12386;DHT22;6257;57.634;18.310;2022-11-21T16:26:02;0.50;99.90
12386;DHT22;6257;57.634;18.310;2022-11-21T16:28:29;0.50;99.90
12386;DHT22;6257;57.634;18.310;2022-11-21T16:30:57;0.50;99.90